Latest Weather Observations for Warruwi

IDD60801

Issued at 1:31 pm CST Wednesday 18 January 2017 (issued every 30 minutes, with the page automatically refreshed every 10 minutes)

About weather observations | Map of weather stations | Latest weather observations for NT | Other Formats
Station Details ID: 014401 Name: WARRUWI AIRPORT Lat: -11.65 Lon: 133.38 Height: 19.2 m
Data from the previous 72 hours. | See also: Recent months at Warruwi
Date/Time
CST
Temp
°C
App
Temp
°C
Dew
Point
°C
Rel
Hum
%
Delta-T
°C
Wind Press
QNH
hPa
Press
MSL
hPa
Rain since
9am
mm
Dir  Spd
km/h
Gust
km/h
Spd
kts
Gust
kts
18/01:00pm 28.0 35.0 27.5 97 0.4 NW 6 13 3 7 1010.0 1009.8 0.0
18/12:30pm 27.4 33.1 26.5 95 0.6 NNW 9 19 5 10 1010.8 1010.6 0.0
18/12:00pm 28.7 34.8 26.5 88 1.6 NW 7 13 4 7 1011.1 1010.9 0.0
18/11:30am 29.0 36.2 27.8 93 0.9 WNW 6 13 3 7 1011.3 1011.1 0.0
18/11:00am 28.8 36.2 27.6 93 0.9 NNW 4 7 2 4 1011.5 1011.3 0.0
18/10:30am 28.9 36.5 27.8 94 0.8 WNW 4 7 2 4 1011.8 1011.6 0.0
18/10:00am 28.2 35.1 26.8 92 1.0 NW 4 9 2 5 1012.0 1011.8 0.0
18/09:30am 27.8 33.4 25.4 87 1.7 NW 6 11 3 6 1012.0 1011.8 0.0
18/09:00am 27.9 35.4 27.7 99 0.1 WSW 4 6 2 3 1012.2 1012.0 3.0
18/08:30am 27.2 33.6 27.0 99 0.1 W 7 11 4 6 1011.9 1011.7 3.0
18/08:00am 26.9 32.8 26.2 96 0.5 N 7 17 4 9 1011.7 1011.5 2.2
18/07:30am 28.5 35.7 27.3 93 0.9 NW 4 7 2 4 1011.2 1011.0 0.6
18/07:00am 27.8 34.6 26.7 94 0.8 NW 4 4 2 2 1010.8 1010.6 0.6
18/06:30am 27.6 34.9 26.9 96 0.5 NNW 2 4 1 2 1010.5 1010.3 0.6
18/06:00am 27.3 34.2 26.8 97 0.4 WNW 4 6 2 3 1010.1 1009.9 0.6
18/05:30am 27.6 34.3 26.5 94 0.8 N 4 6 2 3 1009.5 1009.3 0.6
18/05:00am 27.8 34.7 26.9 95 0.6 WNW 4 6 2 3 1009.3 1009.1 0.2
18/04:30am 27.6 34.5 26.9 96 0.5 NW 4 6 2 3 1009.1 1008.9 0.2
18/04:00am 27.4 34.2 26.7 96 0.5 NW 4 6 2 3 1008.9 1008.7 0.2
18/03:30am 27.6 34.2 26.9 96 0.5 NW 6 9 3 5 1009.0 1008.8 0.2
18/03:00am 28.4 35.0 26.4 89 1.4 NW 4 9 2 5 1009.3 1009.1 0.0
18/02:30am 28.4 34.5 26.2 88 1.6 NW 6 9 3 5 1009.4 1009.2 0.0
18/02:00am 28.4 34.5 26.2 88 1.6 NW 6 9 3 5 1009.3 1009.1 0.0
18/01:30am 28.5 34.9 26.1 87 1.7 NW 4 7 2 4 1009.5 1009.3 0.0
18/01:00am 28.7 34.5 26.1 86 1.8 WNW 7 13 4 7 1009.6 1009.4 0.0
18/12:30am 28.8 34.8 26.4 87 1.7 NW 7 17 4 9 1009.9 1009.7 0.0
18/12:00am 28.8 34.4 25.8 84 2.1 NW 7 13 4 7 1010.1 1009.9 0.0
 
Date/Time
CST
Temp
°C
App
Temp
°C
Dew
Point
°C
Rel
Hum
%
Delta-T
°C
Wind Press
QNH
hPa
Press
MSL
hPa
Rain since
9am
mm
Dir  Spd
km/h
Gust
km/h
Spd
kts
Gust
kts
17/11:30pm 28.9 34.2 25.9 84 2.1 NW 9 15 5 8 1010.3 1010.1 0.0
17/11:00pm 28.9 34.5 25.7 83 2.3 NW 7 15 4 8 1010.6 1010.4 0.0
17/10:30pm 29.0 34.4 26.0 84 2.1 NW 9 15 5 8 1010.4 1010.2 0.0
17/10:00pm 29.1 35.5 26.7 87 1.7 NW 6 17 3 9 1010.3 1010.1 0.0
17/09:30pm 28.9 34.9 26.3 86 1.9 NNW 7 17 4 9 1010.0 1009.8 0.0
17/09:00pm 28.9 34.6 25.9 84 2.1 NNW 7 17 4 9 1009.9 1009.7 0.0
17/08:30pm 28.9 34.1 25.1 80 2.7 NNW 7 13 4 7 1010.2 1010.0 0.0
17/08:00pm 29.0 34.6 25.4 81 2.5 NNW 6 13 3 7 1010.0 1009.8 0.0
17/07:30pm 29.0 35.0 26.0 84 2.1 NNW 6 11 3 6 1009.5 1009.3 0.0
17/07:00pm 29.5 35.2 25.9 81 2.6 NNW 7 13 4 7 1009.1 1008.9 0.0
17/06:30pm 29.6 34.6 25.4 78 3.0 N 9 19 5 10 1008.9 1008.7 0.0
17/06:00pm 29.7 35.2 26.1 81 2.6 N 9 17 5 9 1008.3 1008.1 0.0
17/05:30pm 30.2 36.0 26.6 81 2.6 N 9 20 5 11 1008.1 1007.9 0.0
17/05:00pm 30.5 35.1 26.0 77 3.2 N 13 24 7 13 1007.8 1007.6 0.0
17/04:30pm 31.1 37.0 26.8 78 3.1 N 9 20 5 11 1007.7 1007.5 0.0
17/04:00pm 31.6 37.5 26.8 75 3.5 N 9 17 5 9 1007.5 1007.3 0.0
17/03:30pm 31.7 36.9 26.9 76 3.5 N 13 26 7 14 1007.8 1007.6 0.0
17/03:00pm 31.9 36.9 26.0 71 4.2 N 11 17 6 9 1007.9 1007.7 0.0
17/02:30pm 32.2 37.9 26.5 72 4.1 N 9 17 5 9 1008.0 1007.8 0.0
17/02:00pm 31.7 37.3 26.3 73 3.9 N 9 17 5 9 1008.5 1008.3 0.0
17/01:30pm 31.6 36.9 25.9 72 4.1 N 9 17 5 9 1008.8 1008.6 0.0
17/01:00pm 32.1 36.9 24.4 63 5.4 NNW 7 13 4 7 1009.0 1008.8 0.0
17/12:30pm 31.9 36.7 24.5 65 5.2 NNW 7 15 4 8 1009.1 1008.9 0.0
17/12:00pm 31.8 36.4 24.1 63 5.4 NNW 7 13 4 7 1009.3 1009.1 0.0
17/11:30am 31.5 36.3 24.1 65 5.2 NW 6 9 3 5 1009.7 1009.5 0.0
17/11:00am 31.7 37.1 25.1 68 4.7 NNW 6 13 3 7 1009.9 1009.7 0.0
17/10:30am 31.4 37.0 25.5 71 4.2 N 6 11 3 6 1010.0 1009.8 0.0
17/10:00am 31.3 38.0 26.6 76 3.4 NNE 4 11 2 6 1010.5 1010.3 0.0
17/09:30am 30.0 36.6 27.0 84 2.2 NE 6 7 3 4 1010.7 1010.5 0.0
17/09:00am 29.4 36.5 26.6 85 2.0 E 2 2 1 1 1010.7 1010.5 0.0
17/08:30am 28.4 35.8 27.0 92 1.0 S 2 4 1 2 1010.5 1010.3 0.0
17/08:00am 27.3 34.7 26.4 95 0.6 CALM 0 0 0 0 1010.3 1010.1 0.0
17/07:30am 26.6 34.0 26.4 99 0.1 CALM 0 0 0 0 1009.9 1009.7 0.0
17/07:00am 26.6 33.9 26.3 98 0.2 CALM 0 0 0 0 1009.5 1009.3 0.0
17/06:30am 26.5 33.5 25.8 96 0.5 CALM 0 0 0 0 1008.8 1008.6 0.0
17/06:00am 26.9 33.5 25.3 91 1.1 CALM 0 0 0 0 1008.1 1007.9 0.0
17/05:30am 27.1 33.1 24.9 88 1.5 WSW 2 4 1 2 1007.6 1007.4 0.0
17/05:00am 27.0 32.8 24.6 87 1.7 SSW 2 4 1 2 1007.3 1007.1 0.0
17/04:30am 27.3 32.8 24.7 86 1.8 SW 4 6 2 3 1007.3 1007.1 0.0
17/04:00am 27.6 33.3 25.0 86 1.8 SW 4 6 2 3 1007.4 1007.2 0.0
17/03:30am 27.6 33.2 24.8 85 2.0 WSW 4 6 2 3 1007.2 1007.0 0.0
17/03:00am 27.5 32.6 24.6 84 2.0 WSW 6 9 3 5 1007.3 1007.1 0.0
17/02:30am 27.7 32.6 24.7 84 2.1 SW 7 9 4 5 1007.6 1007.4 0.0
17/02:00am 27.9 34.2 26.5 92 1.0 SW 6 7 3 4 1007.6 1007.4 0.0
17/01:30am 28.4 34.6 27.2 93 0.9 W 9 11 5 6 1007.8 1007.6 0.0
17/01:00am 28.4 34.5 27.0 92 1.0 W 9 11 5 6 1007.9 1007.7 0.0
17/12:30am 28.4 34.8 27.0 92 1.0 WNW 7 13 4 7 1008.1 1007.9 0.0
17/12:00am 28.4 34.7 26.8 91 1.1 WNW 7 13 4 7 1008.3 1008.1 0.0
 
Date/Time
CST
Temp
°C
App
Temp
°C
Dew
Point
°C
Rel
Hum
%
Delta-T
°C
Wind Press
QNH
hPa
Press
MSL
hPa
Rain since
9am
mm
Dir  Spd
km/h
Gust
km/h
Spd
kts
Gust
kts
16/11:30pm 28.3 34.6 26.5 90 1.3 WNW 6 11 3 6 1008.4 1008.2 0.0
16/11:00pm 27.7 34.3 25.3 87 1.7 CALM 0 0 0 0 1008.4 1008.2 0.0
16/10:30pm 28.1 34.6 25.1 84 2.1 CALM 0 0 0 0 1008.3 1008.1 0.0
16/10:00pm 28.2 33.5 25.0 83 2.2 SW 6 9 3 5 1008.1 1007.9 0.0
16/09:30pm 28.2 34.7 26.2 89 1.4 NW 4 6 2 3 1008.0 1007.8 0.0
16/09:00pm 28.1 34.5 26.1 89 1.4 NNW 4 6 2 3 1008.1 1007.9 0.0
16/08:30pm 28.2 34.5 26.0 88 1.6 NNW 4 6 2 3 1008.2 1008.0 0.0
16/08:00pm 28.3 34.1 25.7 86 1.8 NW 6 11 3 6 1008.3 1008.1 0.0
16/07:30pm 28.6 35.1 26.2 87 1.7 NNW 4 6 2 3 1008.4 1008.2 0.0
16/07:00pm 28.8 35.1 26.0 85 2.0 NW 4 6 2 3 1008.1 1007.9 0.0
16/06:30pm 29.0 35.1 25.6 82 2.4 NW 4 9 2 5 1007.7 1007.5 0.0
16/06:00pm 29.3 34.9 25.5 80 2.7 WNW 6 9 3 5 1007.4 1007.2 0.0
16/05:30pm 29.4 35.2 25.8 81 2.6 WNW 6 7 3 4 1006.7 1006.5 0.0
16/05:00pm 29.6 34.7 25.6 79 2.8 WNW 9 15 5 8 1006.4 1006.2 0.0
16/04:30pm 30.0 34.8 25.7 78 3.1 WNW 11 20 6 11 1006.1 1005.9 0.0
16/04:00pm 29.9 33.9 25.0 75 3.4 WNW 13 20 7 11 1005.9 1005.7 0.0
16/03:30pm 30.0 34.8 24.4 72 3.9 WNW 7 13 4 7 1006.1 1005.9 0.0
16/03:00pm 29.1 33.7 24.7 77 3.1 WNW 9 17 5 9 1006.4 1006.2 0.0
16/02:30pm 28.4 32.4 24.4 79 2.8 WSW 11 19 6 10 1006.9 1006.7 0.0
16/02:00pm 31.2 36.9 27.1 79 3.0 NW 11 19 6 10 1007.3 1007.1 0.0
16/01:30pm 31.9 37.6 26.4 72 4.0 WNW 9 19 5 10 1007.6 1007.4 0.0
16/01:00pm 31.3 37.3 26.3 75 3.6 WNW 7 13 4 7 1007.8 1007.6 0.0
16/12:30pm 31.9 37.9 27.4 77 3.3 W 11 19 6 10 1008.2 1008.0 0.0
16/12:00pm 30.4 35.2 26.3 79 2.9 W 13 17 7 9 1008.8 1008.6 0.0
16/11:30am 30.2 35.2 26.6 81 2.6 WNW 13 19 7 10 1009.2 1009.0 0.0
16/11:00am 30.0 35.2 26.8 83 2.3 WNW 13 19 7 10 1009.3 1009.1 0.0
16/10:30am 30.0 35.8 27.2 85 2.0 WNW 11 20 6 11 1009.3 1009.1 0.0
16/10:00am 29.7 35.4 27.1 86 1.9 WNW 11 19 6 10 1009.3 1009.1 0.0
16/09:30am 29.4 35.2 27.2 88 1.6 WNW 11 19 6 10 1009.2 1009.0 0.0
16/09:00am 29.3 34.7 27.1 88 1.6 WNW 13 20 7 11 1009.1 1008.9 -
16/08:30am 29.1 34.8 27.1 89 1.4 WNW 11 17 6 9 1008.9 1008.7 -
16/08:00am 28.9 34.0 26.7 88 1.6 WNW 13 19 7 10 1008.8 1008.6 -
16/07:30am 28.7 34.0 26.5 88 1.6 WNW 11 17 6 9 1008.3 1008.1 -
16/07:00am 28.7 33.3 25.9 85 2.0 WNW 13 20 7 11 1008.0 1007.8 -
16/06:30am 28.5 34.1 26.3 88 1.6 WNW 9 19 5 10 1007.8 1007.6 -
16/06:00am 28.6 33.4 26.2 87 1.7 WNW 13 20 7 11 1007.7 1007.5 -
16/05:30am 28.5 33.6 26.7 90 1.3 WNW 13 22 7 12 1007.4 1007.2 -
16/05:00am 28.4 33.6 26.8 91 1.1 WNW 13 19 7 10 1007.0 1006.8 -
16/04:30am 28.4 33.7 27.0 92 1.0 WNW 13 20 7 11 1007.0 1006.8 -
16/04:00am 28.5 33.7 26.9 91 1.1 WNW 13 20 7 11 1006.9 1006.7 -
16/03:30am 28.6 33.4 26.8 90 1.3 WNW 15 24 8 13 1006.9 1006.7 -
16/03:00am 28.7 33.9 26.9 90 1.3 WNW 13 24 7 13 1006.9 1006.7 0.0
16/02:30am 28.7 34.2 26.7 89 1.4 WNW 11 20 6 11 1006.9 1006.7 -
16/02:00am 28.6 34.0 26.6 89 1.4 WNW 11 19 6 10 1006.6 1006.4 -
16/01:30am 28.8 34.2 26.6 88 1.6 WNW 11 19 6 10 1006.8 1006.6 -
16/01:00am 28.7 34.4 26.5 88 1.6 WNW 9 15 5 8 1007.0 1006.8 -
16/12:30am 28.6 34.6 26.4 88 1.6 NW 7 13 4 7 1007.3 1007.1 -
16/12:00am 28.8 35.2 26.6 88 1.6 NW 6 13 3 7 1007.6 1007.4 -
 
Date/Time
CST
Temp
°C
App
Temp
°C
Dew
Point
°C
Rel
Hum
%
Delta-T
°C
Wind Press
QNH
hPa
Press
MSL
hPa
Rain since
9am
mm
Dir  Spd
km/h
Gust
km/h
Spd
kts
Gust
kts
15/11:30pm 28.9 35.3 26.9 89 1.4 NW 7 11 4 6 1008.1 1007.9 -
15/11:00pm 28.9 35.5 26.9 89 1.4 WNW 6 9 3 5 1008.4 1008.2 -
15/10:30pm 28.9 35.3 26.7 88 1.6 NNW 6 13 3 7 1008.4 1008.2 -
15/10:00pm 29.0 35.5 26.8 88 1.6 NW 6 11 3 6 1008.2 1008.0 -
15/09:30pm 29.1 35.5 26.9 88 1.6 NW 7 13 4 7 1008.1 1007.9 -
15/09:00pm - - - - - - - - - - - - -
15/08:30pm 29.2 35.0 26.6 86 1.9 NW 9 17 5 9 1007.8 1007.6 0.0
15/08:00pm 29.3 35.0 26.5 85 2.0 NW 9 19 5 10 1007.7 1007.5 0.0
15/07:30pm 29.5 35.1 26.3 83 2.3 NW 9 17 5 9 1007.5 1007.3 0.0
15/07:00pm 29.5 35.0 26.1 82 2.4 NW 9 20 5 11 1007.3 1007.1 0.0
15/06:30pm 29.6 34.7 26.2 82 2.4 NW 11 20 6 11 1006.9 1006.7 0.0
15/06:00pm 29.9 35.4 26.1 80 2.7 NW 9 19 5 10 1006.8 1006.6 0.0
15/05:30pm 30.6 35.8 26.3 78 3.1 NNW 11 24 6 13 1006.7 1006.5 0.0
15/05:00pm 30.9 36.3 26.6 78 3.1 NNW 11 19 6 10 1006.5 1006.3 0.0
15/04:30pm 30.9 35.3 26.2 76 3.4 NNW 15 24 8 13 1006.5 1006.3 0.0
15/04:00pm 31.1 35.2 25.7 73 3.8 NNW 15 24 8 13 1006.5 1006.3 0.0
15/03:30pm 31.1 35.7 25.9 74 3.7 NNW 13 22 7 12 1006.7 1006.5 0.0
15/03:00pm 31.1 36.0 26.4 76 3.4 NNW 13 22 7 12 1007.1 1006.9 0.0
15/02:30pm 31.8 37.6 26.6 74 3.7 NNW 9 20 5 11 1007.5 1007.3 0.0
15/02:00pm 31.5 37.0 26.7 75 3.5 NNW 11 19 6 10 1008.1 1007.9 0.0

Other Formats:

Comma delimited format used in spreadsheet applications
http://www.bom.gov.au/fwo/IDD60801/IDD60801.94139.axf

JavaScript Object Notation format (JSON) in row-major order
http://www.bom.gov.au/fwo/IDD60801/IDD60801.94139.json